Time;durP1;ratioP1;P1;durP2;ratioP2;P2;SDS_P1;SDS_P2;PMS_P1;PMS_P2;Temp;Humidity;BMP_temperature;BMP_pressure;BME280_temperature;BME280_humidity;BME280_pressure;Samples;Min_cycle;Max_cycle;Signal;HPM_P1;HPM_P2
2023/05/21 00:02:10;;;;;;;13.83;4.70;;;;;;;;;;5041358;28;20045;-62
2023/05/21 00:04:40;;;;;;;5.40;3.80;;;;;;;;;;5048424;28;20568;-62
2023/05/21 00:07:09;;;;;;;4.93;3.37;;;;;;;;;;5048598;28;20549;-62
2023/05/21 00:09:37;;;;;;;7.93;4.30;;;;;;;;;;5048748;28;20053;-62
2023/05/21 00:12:03;;;;;;;6.70;3.80;;;;;;;;;;5048971;28;20041;-62
2023/05/21 00:14:29;;;;;;;7.97;4.03;;;;;;;;;;5048686;28;20503;-62
2023/05/21 00:16:55;;;;;;;10.90;4.20;;;;;;;;;;5048100;28;20541;-62
2023/05/21 00:19:21;;;;;;;6.30;3.63;;;;;;;;;;5020797;28;20270;-62
2023/05/21 00:21:48;;;;;;;8.00;3.83;;;;;;;;;;5028229;28;20491;-61
2023/05/21 00:24:14;;;;;;;5.20;3.80;;;;;;;;;;5028604;28;20045;-62
2023/05/21 00:26:40;;;;;;;8.57;3.90;;;;;;;;;;5028452;28;20041;-62
2023/05/21 00:29:06;;;;;;;5.87;3.63;;;;;;;;;;5032373;28;20045;-62
2023/05/21 00:31:32;;;;;;;5.17;3.53;;;;;;;;;;5048553;28;20508;-61
2023/05/21 00:33:58;;;;;;;6.00;3.63;;;;;;;;;;5048743;28;20562;-61
2023/05/21 00:36:25;;;;;;;4.80;3.47;;;;;;;;;;5048560;28;20050;-62
2023/05/21 00:38:51;;;;;;;7.73;3.90;;;;;;;;;;5047677;28;20454;-62
2023/05/21 00:41:17;;;;;;;5.03;3.67;;;;;;;;;;5047850;28;20048;-62
2023/05/21 00:43:43;;;;;;;6.23;3.80;;;;;;;;;;5044251;28;20537;-61
2023/05/21 00:46:15;;;;;;;6.83;3.83;;;;;;;;;;5028711;28;20042;-62
2023/05/21 00:48:42;;;;;;;7.33;3.90;;;;;;;;;;5028869;28;20405;-61
2023/05/21 00:51:08;;;;;;;7.50;3.90;;;;;;;;;;5028310;28;20408;-61
2023/05/21 00:53:34;;;;;;;7.17;3.60;;;;;;;;;;5028198;28;20164;-61
2023/05/21 00:56:01;;;;;;;6.30;3.50;;;;;;;;;;5028626;28;20053;-61
2023/05/21 00:58:28;;;;;;;8.90;4.77;;;;;;;;;;5030745;28;20041;-61
2023/05/21 01:00:55;;;;;;;9.00;3.93;;;;;;;;;;5032497;28;20515;-61
2023/05/21 01:03:25;;;;;;;7.53;3.60;;;;;;;;;;5032379;28;20072;-62
2023/05/21 01:05:52;;;;;;;6.63;4.00;;;;;;;;;;5030741;28;20057;-61
2023/05/21 01:08:20;;;;;;;8.43;4.33;;;;;;;;;;5032075;28;20048;-61
2023/05/21 01:10:47;;;;;;;7.20;4.30;;;;;;;;;;5031946;28;20048;-61
2023/05/21 01:13:13;;;;;;;5.43;3.80;;;;;;;;;;5032081;28;20041;-61
2023/05/21 01:15:40;;;;;;;8.50;4.10;;;;;;;;;;5031591;28;20049;-61
2023/05/21 01:18:06;;;;;;;6.00;3.97;;;;;;;;;;5031874;28;20052;-61
2023/05/21 01:20:32;;;;;;;7.60;4.43;;;;;;;;;;5031688;28;20052;-62
2023/05/21 01:22:59;;;;;;;6.43;4.07;;;;;;;;;;5031878;28;20394;-62
2023/05/21 01:25:25;;;;;;;5.60;4.03;;;;;;;;;;5031053;28;20052;-61
2023/05/21 01:27:51;;;;;;;6.27;4.10;;;;;;;;;;5031834;28;20077;-61
2023/05/21 01:30:18;;;;;;;8.03;4.13;;;;;;;;;;5044524;28;20049;-61
2023/05/21 01:32:56;;;;;;;7.87;4.60;;;;;;;;;;5050756;28;20049;-62
2023/05/21 01:35:25;;;;;;;7.43;4.87;;;;;;;;;;5051902;28;20049;-61
2023/05/21 01:38:07;;;;;;;6.23;4.07;;;;;;;;;;5051365;28;20052;-62
2023/05/21 01:41:02;;;;;;;8.43;4.23;;;;;;;;;;5051303;28;20048;-62
2023/05/21 01:43:29;;;;;;;6.53;3.90;;;;;;;;;;5050169;28;20064;-62
2023/05/21 01:45:56;;;;;;;6.97;4.33;;;;;;;;;;5050877;28;20049;-62
2023/05/21 01:48:24;;;;;;;7.80;4.20;;;;;;;;;;5051201;28;20048;-62
2023/05/21 01:50:51;;;;;;;8.60;4.33;;;;;;;;;;5051382;28;20041;-61
2023/05/21 01:53:18;;;;;;;10.60;4.70;;;;;;;;;;5051291;28;20045;-61
2023/05/21 01:55:44;;;;;;;6.53;4.10;;;;;;;;;;5050919;28;20128;-61
2023/05/21 01:58:10;;;;;;;10.07;4.53;;;;;;;;;;5034022;28;20045;-62
2023/05/21 02:00:38;;;;;;;5.47;3.90;;;;;;;;;;5031276;28;20567;-62
2023/05/21 02:03:04;;;;;;;11.17;4.53;;;;;;;;;;5031011;28;20060;-61
2023/05/21 02:05:31;;;;;;;6.77;4.73;;;;;;;;;;5031028;28;20056;-61
2023/05/21 02:07:58;;;;;;;6.90;4.83;;;;;;;;;;5043410;28;20057;-62
2023/05/21 02:10:25;;;;;;;6.50;4.73;;;;;;;;;;5050144;28;20402;-61
2023/05/21 02:12:51;;;;;;;7.33;4.47;;;;;;;;;;5051090;28;20045;-61
2023/05/21 02:15:18;;;;;;;6.83;4.07;;;;;;;;;;5050649;28;20049;-62
2023/05/21 02:17:44;;;;;;;13.17;4.80;;;;;;;;;;5050927;28;20045;-62
2023/05/21 02:20:11;;;;;;;10.87;5.00;;;;;;;;;;5050692;28;20131;-61
2023/05/21 02:22:44;;;;;;;8.33;4.17;;;;;;;;;;5050113;28;20091;-61
2023/05/21 02:25:11;;;;;;;9.07;4.30;;;;;;;;;;5050722;28;20435;-61
2023/05/21 02:27:38;;;;;;;8.00;4.70;;;;;;;;;;5050560;28;20144;-61
2023/05/21 02:30:05;;;;;;;9.90;5.00;;;;;;;;;;5050721;28;20045;-62
2023/05/21 02:32:32;;;;;;;8.20;4.60;;;;;;;;;;5050469;28;20052;-61
2023/05/21 02:34:59;;;;;;;8.43;4.73;;;;;;;;;;5049201;28;20494;-61
2023/05/21 02:37:26;;;;;;;6.10;4.03;;;;;;;;;;5050262;28;20557;-61
2023/05/21 02:39:53;;;;;;;7.13;4.50;;;;;;;;;;5049959;28;20048;-61
2023/05/21 02:42:19;;;;;;;8.20;5.37;;;;;;;;;;5030547;28;20396;-61
2023/05/21 02:44:45;;;;;;;6.97;4.70;;;;;;;;;;5028514;28;20579;-62
2023/05/21 02:47:11;;;;;;;6.37;4.53;;;;;;;;;;5030417;28;20045;-63
2023/05/21 02:49:37;;;;;;;8.27;4.50;;;;;;;;;;5030237;28;20051;-62
2023/05/21 02:52:04;;;;;;;7.03;4.53;;;;;;;;;;5029033;28;20124;-61
2023/05/21 02:54:30;;;;;;;9.67;4.43;;;;;;;;;;5029036;28;20072;-61
2023/05/21 02:56:56;;;;;;;8.80;4.77;;;;;;;;;;5029727;28;20515;-62
2023/05/21 02:59:22;;;;;;;6.37;4.57;;;;;;;;;;5028857;28;20060;-62
2023/05/21 03:01:49;;;;;;;9.10;5.47;;;;;;;;;;5030335;28;20053;-62
2023/05/21 03:04:16;;;;;;;9.30;4.83;;;;;;;;;;5040932;28;20431;-61
2023/05/21 03:06:43;;;;;;;7.27;4.73;;;;;;;;;;5049866;28;20467;-62
2023/05/21 03:09:09;;;;;;;8.60;4.67;;;;;;;;;;5049949;28;20063;-61
2023/05/21 03:11:36;;;;;;;8.27;5.47;;;;;;;;;;5048665;28;20471;-62
2023/05/21 03:14:02;;;;;;;7.40;5.00;;;;;;;;;;5049850;28;20056;-62
2023/05/21 03:16:28;;;;;;;9.63;4.97;;;;;;;;;;5049660;28;20119;-62
2023/05/21 03:18:54;;;;;;;8.27;5.00;;;;;;;;;;5049163;28;20041;-61
2023/05/21 03:21:23;;;;;;;10.00;5.30;;;;;;;;;;5049659;28;20048;-61
2023/05/21 03:23:50;;;;;;;5.90;4.63;;;;;;;;;;5049934;28;20124;-61
2023/05/21 03:26:16;;;;;;;7.27;5.00;;;;;;;;;;5049395;28;20454;-61
2023/05/21 03:28:42;;;;;;;8.90;4.50;;;;;;;;;;5049598;28;20567;-61
2023/05/21 03:31:08;;;;;;;8.43;5.57;;;;;;;;;;5049316;28;20399;-62
2023/05/21 03:33:34;;;;;;;8.73;5.17;;;;;;;;;;5042729;28;20111;-62
2023/05/21 03:36:00;;;;;;;10.90;4.67;;;;;;;;;;5040542;28;20132;-62
2023/05/21 03:38:26;;;;;;;8.73;4.70;;;;;;;;;;5049053;28;20479;-61
2023/05/21 03:40:53;;;;;;;10.73;5.67;;;;;;;;;;5049449;28;20435;-62
2023/05/21 03:43:19;;;;;;;6.97;4.67;;;;;;;;;;5048615;28;20048;-62
2023/05/21 03:45:45;;;;;;;8.47;5.43;;;;;;;;;;5049099;28;20144;-61
2023/05/21 03:48:11;;;;;;;7.73;5.00;;;;;;;;;;5049014;28;20503;-62
2023/05/21 03:50:37;;;;;;;9.03;5.70;;;;;;;;;;5049109;28;20875;-62
2023/05/21 03:53:03;;;;;;;6.40;5.00;;;;;;;;;;5044362;28;20045;-62
2023/05/21 03:55:29;;;;;;;11.53;5.50;;;;;;;;;;5028855;28;20049;-62
2023/05/21 03:57:55;;;;;;;9.07;5.27;;;;;;;;;;5028793;28;20049;-62
2023/05/21 04:00:22;;;;;;;9.57;5.47;;;;;;;;;;5043786;28;20410;-61
2023/05/21 04:02:48;;;;;;;10.23;5.70;;;;;;;;;;5049135;28;20041;-62
2023/05/21 04:05:14;;;;;;;8.50;5.70;;;;;;;;;;5048735;28;20164;-62
2023/05/21 04:07:41;;;;;;;11.63;5.87;;;;;;;;;;5048450;28;20049;-62
2023/05/21 04:10:08;;;;;;;11.53;6.50;;;;;;;;;;5049338;28;20057;-61
2023/05/21 04:12:34;;;;;;;9.57;5.67;;;;;;;;;;5048678;28;20119;-62
2023/05/21 04:15:01;;;;;;;9.67;5.67;;;;;;;;;;5048813;28;20090;-62
2023/05/21 04:17:27;;;;;;;12.00;5.50;;;;;;;;;;5048967;28;20056;-62
2023/05/21 04:19:53;;;;;;;8.17;5.13;;;;;;;;;;5048779;28;20064;-62
2023/05/21 04:22:20;;;;;;;10.10;5.63;;;;;;;;;;5048446;28;20499;-62
2023/05/21 04:24:47;;;;;;;9.10;5.97;;;;;;;;;;5048739;28;20132;-61
2023/05/21 04:27:15;;;;;;;11.23;6.13;;;;;;;;;;5048690;28;20051;-62
2023/05/21 04:29:41;;;;;;;7.60;5.40;;;;;;;;;;5037508;28;20046;-61
2023/05/21 04:32:08;;;;;;;9.70;6.17;;;;;;;;;;5028051;28;20050;-61
2023/05/21 04:34:34;;;;;;;8.33;5.13;;;;;;;;;;5033025;28;20053;-61
2023/05/21 04:37:01;;;;;;;10.30;5.20;;;;;;;;;;5032605;28;20042;-61
2023/05/21 04:39:27;;;;;;;7.70;5.43;;;;;;;;;;5032053;28;20052;-61
2023/05/21 04:41:55;;;;;;;6.97;5.53;;;;;;;;;;5032896;28;20094;-61
2023/05/21 04:44:21;;;;;;;7.60;5.13;;;;;;;;;;5032393;28;20120;-61
2023/05/21 04:46:47;;;;;;;9.33;6.30;;;;;;;;;;5032430;28;20088;-61
2023/05/21 04:49:14;;;;;;;11.10;5.57;;;;;;;;;;5032089;28;20511;-61
2023/05/21 04:51:40;;;;;;;8.13;5.10;;;;;;;;;;5032436;28;20128;-61
2023/05/21 04:54:06;;;;;;;11.87;6.33;;;;;;;;;;5031787;28;20515;-61
2023/05/21 04:56:32;;;;;;;9.60;5.30;;;;;;;;;;5031782;28;20064;-61
2023/05/21 04:58:58;;;;;;;11.63;5.97;;;;;;;;;;5034469;28;20117;-62
2023/05/21 05:01:25;;;;;;;9.60;5.50;;;;;;;;;;5051714;28;20052;-61
2023/05/21 05:03:52;;;;;;;9.53;5.27;;;;;;;;;;5051936;28;20045;-61
2023/05/21 05:06:18;;;;;;;8.20;5.63;;;;;;;;;;5051911;28;20048;-61
2023/05/21 05:08:47;;;;;;;9.27;5.17;;;;;;;;;;5051439;28;20076;-61
2023/05/21 05:11:13;;;;;;;10.63;5.37;;;;;;;;;;5050327;28;20052;-61
2023/05/21 05:13:40;;;;;;;7.90;5.37;;;;;;;;;;5051909;28;20080;-61
2023/05/21 05:16:06;;;;;;;8.23;4.80;;;;;;;;;;5051717;28;20049;-61
2023/05/21 05:18:33;;;;;;;13.03;5.50;;;;;;;;;;5051785;28;20103;-61
2023/05/21 05:20:59;;;;;;;9.70;5.10;;;;;;;;;;5051216;28;20049;-61
2023/05/21 05:23:26;;;;;;;8.90;5.57;;;;;;;;;;5051418;28;20049;-61
2023/05/21 05:25:52;;;;;;;8.90;6.00;;;;;;;;;;5051556;28;20133;-61
2023/05/21 05:28:18;;;;;;;14.13;5.70;;;;;;;;;;5048146;28;20041;-61
2023/05/21 05:30:44;;;;;;;11.07;6.70;;;;;;;;;;5031931;28;20120;-62
2023/05/21 05:33:10;;;;;;;10.30;5.40;;;;;;;;;;5030564;28;20058;-61
2023/05/21 05:35:37;;;;;;;9.30;4.93;;;;;;;;;;5031499;28;20045;-62
2023/05/21 05:38:03;;;;;;;9.83;4.90;;;;;;;;;;5031123;28;20045;-62
2023/05/21 05:40:29;;;;;;;10.03;5.33;;;;;;;;;;5032888;28;20052;-62
2023/05/21 05:42:55;;;;;;;8.93;4.47;;;;;;;;;;5050280;28;20474;-62
2023/05/21 05:45:21;;;;;;;8.43;4.97;;;;;;;;;;5050370;28;20067;-62
2023/05/21 05:47:47;;;;;;;10.57;5.67;;;;;;;;;;5050982;28;20053;-62
2023/05/21 05:50:13;;;;;;;7.43;4.80;;;;;;;;;;5051229;28;20057;-62
2023/05/21 05:52:39;;;;;;;7.67;4.87;;;;;;;;;;5050598;28;20075;-62
2023/05/21 05:55:07;;;;;;;9.67;5.33;;;;;;;;;;5050944;28;20056;-62
2023/05/21 05:57:34;;;;;;;10.30;4.70;;;;;;;;;;5050874;28;20514;-63
2023/05/21 06:00:00;;;;;;;6.27;4.20;;;;;;;;;;5051176;28;20053;-62
2023/05/21 06:02:26;;;;;;;7.90;4.63;;;;;;;;;;5051093;28;20055;-62
2023/05/21 06:04:52;;;;;;;6.87;4.63;;;;;;;;;;5047184;28;20045;-63
2023/05/21 06:07:18;;;;;;;8.63;4.93;;;;;;;;;;5050605;28;20065;-62
2023/05/21 06:09:44;;;;;;;8.10;5.00;;;;;;;;;;5051090;28;20048;-62
2023/05/21 06:12:14;;;;;;;8.87;4.20;;;;;;;;;;5050600;28;20056;-62
2023/05/21 06:14:40;;;;;;;7.00;4.37;;;;;;;;;;5050483;28;20056;-62
2023/05/21 06:17:06;;;;;;;7.50;5.13;;;;;;;;;;5048201;28;20075;-62
2023/05/21 06:19:32;;;;;;;10.40;4.30;;;;;;;;;;5030053;28;20554;-62
2023/05/21 06:21:58;;;;;;;8.53;4.73;;;;;;;;;;5033067;28;20492;-62
2023/05/21 06:24:25;;;;;;;7.63;4.67;;;;;;;;;;5030491;28;20049;-62
2023/05/21 06:26:51;;;;;;;8.67;4.40;;;;;;;;;;5030501;28;20042;-62
2023/05/21 06:29:17;;;;;;;7.70;4.23;;;;;;;;;;5036403;28;20041;-62
2023/05/21 06:31:43;;;;;;;11.17;5.00;;;;;;;;;;5050219;28;20530;-62
2023/05/21 06:34:10;;;;;;;7.53;4.17;;;;;;;;;;5050381;28;20048;-62
2023/05/21 06:36:36;;;;;;;9.20;4.53;;;;;;;;;;5049555;28;20102;-63
2023/05/21 06:39:03;;;;;;;8.30;4.80;;;;;;;;;;5050043;28;20503;-62
2023/05/21 06:41:29;;;;;;;9.73;4.33;;;;;;;;;;5050155;28;20052;-62
2023/05/21 06:43:55;;;;;;;9.47;4.13;;;;;;;;;;5050125;28;20067;-62
2023/05/21 06:46:21;;;;;;;7.13;4.50;;;;;;;;;;5049896;28;20128;-62
2023/05/21 06:48:47;;;;;;;7.57;4.50;;;;;;;;;;5050163;28;20049;-63
2023/05/21 06:51:14;;;;;;;7.27;4.17;;;;;;;;;;5047977;28;20041;-63
2023/05/21 06:53:40;;;;;;;6.93;4.33;;;;;;;;;;5049256;28;20037;-62
2023/05/21 06:56:06;;;;;;;10.73;5.20;;;;;;;;;;5049169;28;20090;-62
2023/05/21 06:58:32;;;;;;;9.57;4.83;;;;;;;;;;5049711;28;20048;-63
2023/05/21 07:00:58;;;;;;;6.50;4.10;;;;;;;;;;5049735;28;20045;-63
2023/05/21 07:03:25;;;;;;;7.43;3.87;;;;;;;;;;5047037;28;20045;-63
2023/05/21 07:05:52;;;;;;;8.53;4.37;;;;;;;;;;5049654;28;20047;-62
2023/05/21 07:08:18;;;;;;;7.40;4.40;;;;;;;;;;5049857;28;20045;-62
2023/05/21 07:10:45;;;;;;;7.83;3.50;;;;;;;;;;5040826;28;20458;-62
2023/05/21 07:13:11;;;;;;;10.60;4.13;;;;;;;;;;5029359;28;20115;-62
2023/05/21 07:15:37;;;;;;;9.63;3.60;;;;;;;;;;5029718;28;20120;-62
2023/05/21 07:18:03;;;;;;;6.47;3.33;;;;;;;;;;5029572;28;20091;-63
2023/05/21 07:20:30;;;;;;;6.03;3.60;;;;;;;;;;5029592;28;20072;-62
2023/05/21 07:22:56;;;;;;;8.53;3.30;;;;;;;;;;5029021;28;20461;-62
2023/05/21 07:25:22;;;;;;;7.47;4.03;;;;;;;;;;5029451;28;20132;-61
2023/05/21 07:27:48;;;;;;;6.37;3.57;;;;;;;;;;5029324;28;20049;-63
2023/05/21 07:30:15;;;;;;;7.43;3.50;;;;;;;;;;5031464;28;20097;-63
2023/05/21 07:32:41;;;;;;;6.93;3.67;;;;;;;;;;5048294;28;20041;-62
2023/05/21 07:35:07;;;;;;;7.23;3.83;;;;;;;;;;5036729;28;20053;-62
2023/05/21 07:37:33;;;;;;;5.83;3.93;;;;;;;;;;5028688;28;20422;-62
2023/05/21 07:39:59;;;;;;;8.90;3.40;;;;;;;;;;5029147;28;20053;-62
2023/05/21 07:42:25;;;;;;;5.47;3.30;;;;;;;;;;5029175;28;20190;-62
2023/05/21 07:44:51;;;;;;;6.10;3.40;;;;;;;;;;5029074;28;21048;-62
2023/05/21 07:47:18;;;;;;;10.53;3.63;;;;;;;;;;5042769;28;20052;-62
2023/05/21 07:49:44;;;;;;;8.03;3.90;;;;;;;;;;5048719;28;20114;-62
2023/05/21 07:52:10;;;;;;;6.67;3.80;;;;;;;;;;5049090;28;20495;-62
2023/05/21 07:54:36;;;;;;;6.53;3.60;;;;;;;;;;5047285;28;20419;-61
2023/05/21 07:57:02;;;;;;;6.40;3.37;;;;;;;;;;5034778;28;20055;-61
2023/05/21 07:59:28;;;;;;;6.33;3.43;;;;;;;;;;5051477;28;20040;-61
2023/05/21 08:01:54;;;;;;;7.23;3.93;;;;;;;;;;5054696;28;20037;-61
2023/05/21 08:04:20;;;;;;;10.47;4.57;;;;;;;;;;5052454;28;20133;-62
2023/05/21 08:06:47;;;;;;;5.47;3.57;;;;;;;;;;5057957;28;20040;-62
2023/05/21 08:09:13;;;;;;;7.43;3.50;;;;;;;;;;5044601;28;20059;-61
2023/05/21 08:11:39;;;;;;;6.67;3.37;;;;;;;;;;5055690;28;20124;-61
2023/05/21 08:14:05;;;;;;;6.20;3.30;;;;;;;;;;5054431;28;20473;-63
2023/05/21 08:16:31;;;;;;;8.07;4.27;;;;;;;;;;5054614;28;20052;-62
2023/05/21 08:18:57;;;;;;;6.07;3.53;;;;;;;;;;5058175;28;20053;-62
2023/05/21 08:21:23;;;;;;;8.70;4.13;;;;;;;;;;5053166;28;20116;-67
2023/05/21 08:23:52;;;;;;;6.63;4.17;;;;;;;;;;5054245;28;20455;-62
2023/05/21 08:26:18;;;;;;;6.20;4.20;;;;;;;;;;5055815;28;20124;-62
2023/05/21 08:28:44;;;;;;;9.97;4.07;;;;;;;;;;5060206;28;20094;-63
2023/05/21 08:31:11;;;;;;;5.00;3.50;;;;;;;;;;5060723;28;20056;-64
2023/05/21 08:33:37;;;;;;;11.33;4.33;;;;;;;;;;5058640;28;20518;-64
2023/05/21 08:36:04;;;;;;;9.87;4.43;;;;;;;;;;5062005;28;20045;-64
2023/05/21 08:38:31;;;;;;;12.40;4.83;;;;;;;;;;5060379;28;20045;-64
2023/05/21 08:40:58;;;;;;;6.77;4.40;;;;;;;;;;5058723;28;20097;-64
2023/05/21 08:43:26;;;;;;;10.50;4.53;;;;;;;;;;5048280;28;20048;-63
2023/05/21 08:45:53;;;;;;;7.90;4.13;;;;;;;;;;5054540;28;20106;-63
2023/05/21 08:48:21;;;;;;;6.40;4.47;;;;;;;;;;5059070;28;20088;-63
2023/05/21 08:50:48;;;;;;;7.43;4.43;;;;;;;;;;5055330;28;20041;-63
2023/05/21 08:53:14;;;;;;;10.30;4.60;;;;;;;;;;5053216;28;20059;-63
2023/05/21 08:55:42;;;;;;;8.20;4.47;;;;;;;;;;5054378;28;20395;-63
2023/05/21 08:58:08;;;;;;;7.67;4.00;;;;;;;;;;5059337;28;20040;-64
2023/05/21 09:00:34;;;;;;;7.07;3.50;;;;;;;;;;5059789;28;20045;-63
2023/05/21 09:03:01;;;;;;;7.33;4.33;;;;;;;;;;5052811;28;20087;-63
2023/05/21 09:05:28;;;;;;;9.70;4.20;;;;;;;;;;5059808;28;20727;-64
2023/05/21 09:07:54;;;;;;;6.27;4.00;;;;;;;;;;5057116;28;20085;-63
2023/05/21 09:10:23;;;;;;;8.00;3.63;;;;;;;;;;5055839;28;20065;-63
2023/05/21 09:12:49;;;;;;;10.83;4.17;;;;;;;;;;5054831;28;20396;-64
2023/05/21 09:15:15;;;;;;;6.27;3.83;;;;;;;;;;5048469;28;20055;-63
2023/05/21 09:17:41;;;;;;;6.87;3.80;;;;;;;;;;5053435;28;20036;-63
2023/05/21 09:20:14;;;;;;;8.93;3.80;;;;;;;;;;5058502;28;20072;-63
2023/05/21 09:22:44;;;;;;;8.27;3.70;;;;;;;;;;5058777;28;20041;-64
2023/05/21 09:25:11;;;;;;;8.37;4.70;;;;;;;;;;5060748;28;20415;-63
2023/05/21 09:27:37;;;;;;;6.87;3.50;;;;;;;;;;5059612;28;20051;-64
2023/05/21 09:30:05;;;;;;;6.00;3.80;;;;;;;;;;5061028;28;20044;-64
2023/05/21 09:32:31;;;;;;;5.93;3.93;;;;;;;;;;5055036;28;20458;-64
2023/05/21 09:35:02;;;;;;;6.33;4.13;;;;;;;;;;5056427;28;20432;-63
2023/05/21 09:37:30;;;;;;;4.37;3.37;;;;;;;;;;5049113;28;20452;-64
2023/05/21 09:39:56;;;;;;;5.70;3.90;;;;;;;;;;5056314;28;20202;-63
2023/05/21 09:42:22;;;;;;;7.93;3.50;;;;;;;;;;5060201;28;20040;-63
2023/05/21 09:44:48;;;;;;;7.23;3.73;;;;;;;;;;5059290;28;20049;-64
2023/05/21 09:47:19;;;;;;;7.30;4.37;;;;;;;;;;5055817;28;20052;-64
2023/05/21 09:49:45;;;;;;;7.20;3.93;;;;;;;;;;5053578;28;20053;-64
2023/05/21 09:52:11;;;;;;;7.53;4.93;;;;;;;;;;5056490;28;20036;-64
2023/05/21 09:54:37;;;;;;;5.43;3.73;;;;;;;;;;5059759;28;20102;-64
2023/05/21 09:57:03;;;;;;;9.03;4.40;;;;;;;;;;5060022;28;20491;-64
2023/05/21 09:59:36;;;;;;;10.87;4.10;;;;;;;;;;5049861;28;20041;-64
2023/05/21 10:02:02;;;;;;;6.87;4.00;;;;;;;;;;5054611;28;20036;-64
2023/05/21 10:04:29;;;;;;;7.70;4.30;;;;;;;;;;5059241;28;20045;-64
2023/05/21 10:06:56;;;;;;;6.57;4.73;;;;;;;;;;5055597;28;20059;-64
2023/05/21 10:09:23;;;;;;;7.27;4.43;;;;;;;;;;5058009;28;20473;-66
2023/05/21 10:11:49;;;;;;;8.33;5.10;;;;;;;;;;5058698;28;20049;-66
2023/05/21 10:14:22;;;;;;;6.63;4.10;;;;;;;;;;5058985;28;20040;-66
2023/05/21 10:16:49;;;;;;;7.13;4.97;;;;;;;;;;5054447;28;20044;-66
2023/05/21 10:19:16;;;;;;;5.35;4.40;;;;;;;;;;5057641;28;20048;-66
2023/05/21 10:21:43;;;;;;;6.22;4.53;;;;;;;;;;5056325;28;20084;-65
2023/05/21 10:24:10;;;;;;;10.43;5.00;;;;;;;;;;5052912;28;20102;-66
2023/05/21 10:26:37;;;;;;;8.52;4.93;;;;;;;;;;5054697;28;20044;-66
2023/05/21 10:29:03;;;;;;;8.70;5.43;;;;;;;;;;5060465;28;20041;-65
2023/05/21 10:31:29;;;;;;;8.73;5.65;;;;;;;;;;5056812;28;20107;-66
2023/05/21 10:33:56;;;;;;;13.88;6.30;;;;;;;;;;5053658;28;20041;-66
2023/05/21 10:36:24;;;;;;;7.40;5.38;;;;;;;;;;5055596;28;20051;-65
2023/05/21 10:38:50;;;;;;;9.00;5.15;;;;;;;;;;5060722;28;20060;-66
2023/05/21 10:41:18;;;;;;;10.50;5.78;;;;;;;;;;5052407;28;20045;-66
2023/05/21 10:43:44;;;;;;;7.13;5.70;;;;;;;;;;5055732;28;20052;-66
2023/05/21 10:46:23;;;;;;;7.07;5.53;;;;;;;;;;5061293;28;20495;-66
2023/05/21 10:49:08;;;;;;;13.73;5.70;;;;;;;;;;5054976;28;20447;-66
2023/05/21 10:51:39;;;;;;;9.57;5.25;;;;;;;;;;5058010;28;20039;-65
2023/05/21 10:54:23;;;;;;;8.10;5.60;;;;;;;;;;5059341;28;20041;-65
2023/05/21 10:56:52;;;;;;;6.97;5.88;;;;;;;;;;5052234;28;20110;-64
2023/05/21 10:59:20;;;;;;;10.27;6.07;;;;;;;;;;5060701;28;20125;-66
2023/05/21 11:01:48;;;;;;;6.50;5.63;;;;;;;;;;5059752;28;20040;-66
2023/05/21 11:04:16;;;;;;;8.25;5.25;;;;;;;;;;5065168;28;20052;-66
2023/05/21 11:06:47;;;;;;;9.20;5.82;;;;;;;;;;5010284;28;20057;-67
2023/05/21 11:09:14;;;;;;;9.15;7.32;;;;;;;;;;5037534;28;20048;-67
2023/05/21 11:11:43;;;;;;;10.27;7.43;;;;;;;;;;5049150;28;20053;-66
2023/05/21 11:14:30;;;;;;;9.48;6.55;;;;;;;;;;5045946;28;20048;-66
2023/05/21 11:16:57;;;;;;;8.13;6.18;;;;;;;;;;5048424;28;20052;-66
2023/05/21 11:19:31;;;;;;;9.68;7.80;;;;;;;;;;5039953;28;20049;-67
2023/05/21 11:21:58;;;;;;;9.85;7.47;;;;;;;;;;5036756;28;20037;-66
2023/05/21 11:24:26;;;;;;;10.75;7.22;;;;;;;;;;5046733;28;20095;-66
2023/05/21 11:26:57;;;;;;;13.02;8.63;;;;;;;;;;5046392;28;20514;-66
2023/05/21 11:29:39;;;;;;;10.98;8.93;;;;;;;;;;5048069;28;20489;-66
2023/05/21 11:32:07;;;;;;;11.02;8.75;;;;;;;;;;5037390;28;20053;-66
2023/05/21 11:34:46;;;;;;;12.68;8.93;;;;;;;;;;5040564;28;20495;-66
2023/05/21 11:37:16;;;;;;;10.77;8.82;;;;;;;;;;5036464;28;20513;-66
2023/05/21 11:39:42;;;;;;;11.65;7.65;;;;;;;;;;5028574;28;20045;-66
2023/05/21 11:42:08;;;;;;;10.50;7.18;;;;;;;;;;5040594;28;20485;-66
2023/05/21 11:44:43;;;;;;;10.98;9.88;;;;;;;;;;5044977;28;20205;-66
2023/05/21 11:47:11;;;;;;;9.80;8.27;;;;;;;;;;5044806;28;20526;-66
2023/05/21 11:49:38;;;;;;;9.38;6.97;;;;;;;;;;5030947;28;20041;-66
2023/05/21 11:52:05;;;;;;;12.48;8.80;;;;;;;;;;5028468;28;20052;-66
2023/05/21 11:54:35;;;;;;;10.55;8.43;;;;;;;;;;5027939;28;20045;-66
2023/05/21 11:57:02;;;;;;;11.95;7.50;;;;;;;;;;5027751;28;20504;-66
2023/05/21 11:59:28;;;;;;;10.07;8.82;;;;;;;;;;5028041;28;20060;-66
2023/05/21 12:01:55;;;;;;;13.90;11.30;;;;;;;;;;5028194;28;20087;-66
2023/05/21 12:04:21;;;;;;;13.48;9.82;;;;;;;;;;5028382;28;20037;-66
2023/05/21 12:06:49;;;;;;;10.98;9.43;;;;;;;;;;5027714;28;20041;-66
2023/05/21 12:09:15;;;;;;;11.98;9.85;;;;;;;;;;5028107;28;20056;-66
2023/05/21 12:11:41;;;;;;;12.45;9.48;;;;;;;;;;5027456;28;20431;-66
2023/05/21 12:14:08;;;;;;;11.27;8.75;;;;;;;;;;5027770;28;20063;-66
2023/05/21 12:16:34;;;;;;;12.00;9.98;;;;;;;;;;5027792;28;20049;-66
2023/05/21 12:19:02;;;;;;;11.45;10.25;;;;;;;;;;5027916;28;20060;-66
2023/05/21 12:21:28;;;;;;;12.85;9.75;;;;;;;;;;5027633;28;20042;-66
2023/05/21 12:23:55;;;;;;;12.25;9.18;;;;;;;;;;5027332;28;20056;-66
2023/05/21 12:26:24;;;;;;;11.35;9.95;;;;;;;;;;5027666;28;20053;-66
2023/05/21 12:28:51;;;;;;;10.73;9.15;;;;;;;;;;5028080;28;20054;-66
2023/05/21 12:31:17;;;;;;;16.25;9.80;;;;;;;;;;5027400;28;20504;-67
2023/05/21 12:33:50;;;;;;;11.02;9.00;;;;;;;;;;5027731;28;20084;-66
2023/05/21 12:36:22;;;;;;;11.20;10.10;;;;;;;;;;5027557;28;20139;-66
2023/05/21 12:38:50;;;;;;;11.60;9.52;;;;;;;;;;5027151;28;20049;-66
2023/05/21 12:41:17;;;;;;;11.65;10.00;;;;;;;;;;5027472;28;20041;-66
2023/05/21 12:43:43;;;;;;;12.38;9.40;;;;;;;;;;5027850;28;20041;-66
2023/05/21 12:46:13;;;;;;;12.85;9.85;;;;;;;;;;5027508;28;20041;-66
2023/05/21 12:48:41;;;;;;;10.15;9.15;;;;;;;;;;5027422;28;20053;-66
2023/05/21 12:51:07;;;;;;;17.42;9.73;;;;;;;;;;5027142;28;20427;-66
2023/05/21 12:53:37;;;;;;;11.15;10.05;;;;;;;;;;5028189;28;20534;-66
2023/05/21 12:56:10;;;;;;;11.80;10.60;;;;;;;;;;5030320;28;20415;-66
2023/05/21 12:58:37;;;;;;;11.07;9.73;;;;;;;;;;5030881;28;20095;-67
2023/05/21 13:01:10;;;;;;;13.60;9.55;;;;;;;;;;5031761;28;20140;-66
2023/05/21 13:03:40;;;;;;;15.60;10.65;;;;;;;;;;5031304;28;20499;-66
2023/05/21 13:06:08;;;;;;;11.18;9.93;;;;;;;;;;5030084;28;20049;-66
2023/05/21 13:08:34;;;;;;;12.48;10.00;;;;;;;;;;5030785;28;20431;-66
2023/05/21 13:11:01;;;;;;;14.07;11.18;;;;;;;;;;5031195;28;20236;-66
2023/05/21 13:13:27;;;;;;;12.07;10.07;;;;;;;;;;5031211;28;20411;-66
2023/05/21 13:15:53;;;;;;;13.45;11.02;;;;;;;;;;5031162;28;20045;-66
2023/05/21 13:18:20;;;;;;;10.35;9.32;;;;;;;;;;5030387;28;20504;-66
2023/05/21 13:20:46;;;;;;;12.43;11.10;;;;;;;;;;5031009;28;20051;-66
2023/05/21 13:23:12;;;;;;;16.17;10.63;;;;;;;;;;5031104;28;20045;-66
2023/05/21 13:25:39;;;;;;;11.00;9.55;;;;;;;;;;5031040;28;20048;-66
2023/05/21 13:28:07;;;;;;;14.18;10.65;;;;;;;;;;5030014;28;20053;-66
2023/05/21 13:30:33;;;;;;;13.25;12.05;;;;;;;;;;5030723;28;20049;-66
2023/05/21 13:32:59;;;;;;;12.43;11.20;;;;;;;;;;5030931;28;20127;-66
2023/05/21 13:35:25;;;;;;;11.57;10.45;;;;;;;;;;5030367;28;20471;-66
2023/05/21 13:37:51;;;;;;;13.23;11.75;;;;;;;;;;5030291;28;20049;-65
2023/05/21 13:40:17;;;;;;;14.38;10.60;;;;;;;;;;5030469;28;20053;-64
2023/05/21 13:42:44;;;;;;;11.95;10.73;;;;;;;;;;5030656;28;20125;-66
2023/05/21 13:45:11;;;;;;;12.63;11.35;;;;;;;;;;5030408;28;20042;-66
2023/05/21 13:47:38;;;;;;;13.68;10.63;;;;;;;;;;5030086;28;20095;-66
2023/05/21 13:50:04;;;;;;;12.35;10.98;;;;;;;;;;5030404;28;20045;-67
2023/05/21 13:52:30;;;;;;;12.63;11.43;;;;;;;;;;5030358;28;20049;-66
2023/05/21 13:54:56;;;;;;;12.55;10.55;;;;;;;;;;5030381;28;20128;-66
2023/05/21 13:57:25;;;;;;;13.38;11.50;;;;;;;;;;5029659;28;20104;-66
2023/05/21 13:59:51;;;;;;;12.68;10.20;;;;;;;;;;5030418;28;20050;-66
2023/05/21 14:02:17;;;;;;;13.65;10.80;;;;;;;;;;5030211;28;20424;-66
2023/05/21 14:04:43;;;;;;;13.50;11.43;;;;;;;;;;5030278;28;20415;-66
2023/05/21 14:07:10;;;;;;;12.60;11.30;;;;;;;;;;5030123;28;20416;-66
2023/05/21 14:09:36;;;;;;;13.55;12.15;;;;;;;;;;5029378;28;20420;-66
2023/05/21 14:12:04;;;;;;;15.85;12.35;;;;;;;;;;5028669;28;20056;-66
2023/05/21 14:14:30;;;;;;;12.40;11.05;;;;;;;;;;5029862;28;20124;-66
2023/05/21 14:16:56;;;;;;;14.52;12.70;;;;;;;;;;5029811;28;20049;-66
2023/05/21 14:19:22;;;;;;;15.02;12.05;;;;;;;;;;5030183;28;20115;-66
2023/05/21 14:21:51;;;;;;;13.82;11.35;;;;;;;;;;5029856;28;20045;-66
2023/05/21 14:24:17;;;;;;;12.07;10.82;;;;;;;;;;5028818;28;20049;-66
2023/05/21 14:26:43;;;;;;;12.80;10.18;;;;;;;;;;5029728;28;20060;-66
2023/05/21 14:29:09;;;;;;;12.55;9.90;;;;;;;;;;5029990;28;20501;-66
2023/05/21 14:31:36;;;;;;;11.40;9.70;;;;;;;;;;5029382;28;20191;-66
2023/05/21 14:34:02;;;;;;;14.10;10.52;;;;;;;;;;5029794;28;20179;-67
2023/05/21 14:36:28;;;;;;;12.32;11.13;;;;;;;;;;5029563;28;20048;-67